createdAt,value
2023-05-05T00:00:41.556Z,102040.53
2023-05-05T00:03:28.956Z,102040.87
2023-05-05T00:06:16.250Z,102038.21
2023-05-05T00:09:03.217Z,102034.84
2023-05-05T00:11:49.950Z,102038.56
2023-05-05T00:14:36.579Z,102038.39
2023-05-05T00:17:23.512Z,102043.38
2023-05-05T00:20:10.990Z,102034.75
2023-05-05T00:22:58.042Z,102033.39
2023-05-05T00:25:44.811Z,102031.85
2023-05-05T00:28:31.772Z,102034.00
2023-05-05T00:31:22.124Z,102034.90
2023-05-05T00:34:10.147Z,102033.17
2023-05-05T00:36:56.914Z,102037.98
2023-05-05T00:39:44.858Z,102036.07
2023-05-05T00:42:46.527Z,102033.45
2023-05-05T00:45:33.295Z,102033.14
2023-05-05T00:48:24.501Z,102028.75
2023-05-05T00:51:11.393Z,102029.34
2023-05-05T00:53:58.486Z,102025.84
2023-05-05T00:56:45.992Z,102027.64
2023-05-05T00:59:34.399Z,102026.42
2023-05-05T01:02:23.027Z,102026.45
2023-05-05T01:05:11.266Z,102026.80
2023-05-05T01:08:21.200Z,102025.38
2023-05-05T01:11:17.293Z,102025.58
2023-05-05T01:14:18.367Z,102026.65
2023-05-05T01:17:18.594Z,102023.45
2023-05-05T01:20:23.608Z,102022.23
2023-05-05T01:23:39.281Z,102028.09
2023-05-05T01:26:38.910Z,102025.09
2023-05-05T01:29:41.515Z,102022.77
2023-05-05T01:32:31.889Z,102015.73
2023-05-05T01:35:29.977Z,102011.48
2023-05-05T01:38:26.428Z,102011.29
2023-05-05T01:41:25.590Z,102003.52
2023-05-05T01:44:14.805Z,102006.17
2023-05-05T01:47:02.785Z,102002.80
2023-05-05T01:49:51.605Z,102001.05
2023-05-05T01:52:40.205Z,102004.92
2023-05-05T01:55:29.328Z,102000.33
2023-05-05T01:58:17.400Z,102002.80
2023-05-05T02:01:05.688Z,102006.33
2023-05-05T02:03:55.117Z,102003.67
2023-05-05T02:06:44.445Z,102007.55
2023-05-05T02:09:32.937Z,102014.44
2023-05-05T02:12:21.978Z,102017.60
2023-05-05T02:15:11.340Z,102013.71
2023-05-05T02:18:00.434Z,102014.24
2023-05-05T02:20:47.962Z,102017.41
2023-05-05T02:23:36.448Z,102020.74
2023-05-05T02:26:24.866Z,102022.87
2023-05-05T02:29:18.187Z,102019.84
2023-05-05T02:32:11.511Z,102023.34
2023-05-05T02:37:02.700Z,102027.58
2023-05-05T02:39:58.352Z,102030.92
2023-05-05T02:42:47.889Z,102027.75
2023-05-05T02:45:34.070Z,102027.38
2023-05-05T02:48:20.673Z,102028.61
2023-05-05T02:51:07.653Z,102023.13
2023-05-05T02:53:55.808Z,102026.80
2023-05-05T02:56:48.434Z,102027.86
2023-05-05T02:59:48.125Z,102031.71
2023-05-05T03:03:05.203Z,102030.98
2023-05-05T03:06:01.687Z,102031.69
2023-05-05T03:09:04.872Z,102031.15
2023-05-05T03:12:04.014Z,102036.27
2023-05-05T03:14:58.197Z,102036.28
2023-05-05T03:17:46.813Z,102033.13
2023-05-05T03:20:35.101Z,102033.83
2023-05-05T03:23:25.017Z,102029.57
2023-05-05T03:26:18.607Z,102031.33
2023-05-05T03:29:08.176Z,102027.62
2023-05-05T03:31:58.866Z,102026.21
2023-05-05T03:34:45.873Z,102027.11
2023-05-05T03:37:32.989Z,102028.76
2023-05-05T03:40:23.523Z,102028.79
2023-05-05T03:43:17.458Z,102029.34
2023-05-05T03:46:04.722Z,102035.71
2023-05-05T03:48:53.583Z,102038.56
2023-05-05T03:51:41.474Z,102034.52
2023-05-05T03:54:28.724Z,102031.02
2023-05-05T03:57:17.009Z,102035.62
2023-05-05T04:00:04.034Z,102035.63
2023-05-05T04:03:01.395Z,102031.94
2023-05-05T04:05:48.544Z,102028.60
2023-05-05T04:08:36.247Z,102030.73
2023-05-05T04:11:22.959Z,102037.45
2023-05-05T04:14:10.604Z,102037.27
2023-05-05T04:16:57.504Z,102040.98
2023-05-05T04:19:44.762Z,102040.44
2023-05-05T04:22:33.989Z,102035.13
2023-05-05T04:25:23.484Z,102035.83
2023-05-05T04:28:10.530Z,102032.29
2023-05-05T04:31:32.865Z,102031.56
2023-05-05T04:34:19.810Z,102030.46
2023-05-05T04:37:07.131Z,102026.70
2023-05-05T04:39:55.180Z,102026.48
2023-05-05T04:42:42.067Z,102029.07
2023-05-05T04:45:29.672Z,102025.64
2023-05-05T04:48:16.804Z,102026.09
2023-05-05T04:51:12.369Z,102025.13
2023-05-05T04:54:01.039Z,102022.07
2023-05-05T04:56:48.286Z,102028.38
2023-05-05T04:59:35.112Z,102025.13
2023-05-05T05:02:22.423Z,102022.23
2023-05-05T05:05:11.824Z,102019.38
2023-05-05T05:07:59.753Z,102020.55
2023-05-05T05:10:46.746Z,102018.70
2023-05-05T05:13:33.926Z,102021.47
2023-05-05T05:16:21.696Z,102024.24
2023-05-05T05:19:09.085Z,102028.41
2023-05-05T05:22:01.657Z,102031.84
2023-05-05T05:24:49.638Z,102028.55
2023-05-05T05:27:39.575Z,102027.17
2023-05-05T05:30:54.070Z,102032.34
2023-05-05T05:33:41.866Z,102030.82
2023-05-05T05:36:29.632Z,102031.77
2023-05-05T05:39:16.218Z,102032.89
2023-05-05T05:42:03.773Z,102029.80
2023-05-05T05:44:53.185Z,102025.85
2023-05-05T05:47:40.097Z,102025.61
2023-05-05T05:50:28.793Z,102024.45
2023-05-05T05:53:16.286Z,102030.05
2023-05-05T05:56:05.169Z,102026.76
2023-05-05T05:58:52.172Z,102028.23
2023-05-05T06:01:40.755Z,102028.66
2023-05-05T06:04:31.701Z,102030.33
2023-05-05T06:07:18.889Z,102029.30
2023-05-05T06:10:25.160Z,102030.45
2023-05-05T06:13:14.486Z,102024.38
2023-05-05T06:16:06.768Z,102024.00
2023-05-05T06:18:54.655Z,102023.83
2023-05-05T06:21:41.770Z,102022.62
2023-05-05T06:24:29.353Z,102020.90
2023-05-05T06:27:19.752Z,102017.59
2023-05-05T06:30:09.857Z,102013.59
2023-05-05T06:32:57.156Z,102012.08
2023-05-05T06:35:45.961Z,102011.11
2023-05-05T06:38:32.755Z,102010.48
2023-05-05T06:41:19.728Z,102012.64
2023-05-05T06:44:07.479Z,102014.02
2023-05-05T06:46:54.297Z,102011.88
2023-05-05T06:49:44.136Z,102011.77
2023-05-05T06:52:31.292Z,102004.64
2023-05-05T06:55:18.060Z,102008.92
2023-05-05T06:58:05.033Z,102008.48
2023-05-05T07:00:52.364Z,102009.19
2023-05-05T07:03:40.732Z,102013.76
2023-05-05T07:06:28.277Z,102013.73
2023-05-05T07:09:17.025Z,102015.52
2023-05-05T07:12:05.294Z,102012.16
2023-05-05T07:14:53.671Z,102013.40
2023-05-05T07:17:40.954Z,102010.52
2023-05-05T07:20:28.832Z,102005.23
2023-05-05T07:23:21.109Z,102009.58
2023-05-05T07:26:22.076Z,102006.75
2023-05-05T07:29:10.865Z,102004.05
2023-05-05T07:31:58.006Z,102006.90
2023-05-05T07:34:47.004Z,102007.43
2023-05-05T07:37:40.323Z,102002.77
2023-05-05T07:40:27.003Z,102004.50
2023-05-05T07:43:18.611Z,102006.64
2023-05-05T07:51:17.046Z,102009.98
2023-05-05T07:54:11.056Z,102008.45
2023-05-05T07:56:59.066Z,102007.37
2023-05-05T07:59:45.801Z,102006.21
2023-05-05T08:02:32.629Z,102010.49
2023-05-05T08:05:20.163Z,102015.25
2023-05-05T08:08:07.516Z,102016.81
2023-05-05T08:10:58.509Z,102014.39
2023-05-05T08:13:49.055Z,102014.55
2023-05-05T08:16:36.128Z,102018.39
2023-05-05T08:19:29.337Z,102014.73
2023-05-05T08:22:16.587Z,102014.70
2023-05-05T08:25:03.376Z,102015.95
2023-05-05T08:27:50.588Z,102020.19
2023-05-05T08:30:37.281Z,102019.60
2023-05-05T08:33:35.573Z,102018.28
2023-05-05T08:36:22.479Z,102019.33
2023-05-05T08:39:09.194Z,102018.19
2023-05-05T08:41:58.578Z,102014.52
2023-05-05T08:44:45.720Z,102012.13
2023-05-05T08:47:46.914Z,102010.86
2023-05-05T08:50:44.271Z,102013.20
2023-05-05T08:53:50.225Z,102015.05
2023-05-05T08:56:41.832Z,102017.41
2023-05-05T08:59:31.658Z,102018.80
2023-05-05T09:02:23.915Z,102018.73
2023-05-05T09:05:11.366Z,102017.26
2023-05-05T09:07:58.641Z,102012.09
2023-05-05T09:10:53.449Z,102009.35
2023-05-05T09:13:47.668Z,102008.25
2023-05-05T09:16:34.358Z,102007.20
2023-05-05T09:20:22.117Z,102003.94
2023-05-05T09:23:50.634Z,102002.41
2023-05-05T09:26:59.022Z,102003.09
2023-05-05T09:38:25.652Z,102001.02
2023-05-05T09:41:15.901Z,101999.54
2023-05-05T09:44:03.358Z,101996.48
2023-05-05T09:46:52.049Z,101998.34
2023-05-05T09:49:39.457Z,101999.75
2023-05-05T09:52:28.008Z,101998.40
2023-05-05T09:55:18.256Z,101998.83
2023-05-05T09:58:20.857Z,101996.36
2023-05-05T10:01:22.891Z,102000.90
2023-05-05T10:04:30.344Z,101997.48
2023-05-05T10:07:26.582Z,101999.33
2023-05-05T10:10:17.706Z,101998.31
2023-05-05T10:13:04.828Z,101999.85
2023-05-05T10:15:54.692Z,101998.42
2023-05-05T10:18:46.739Z,101991.92
2023-05-05T10:21:38.011Z,101984.34
2023-05-05T10:24:38.991Z,101980.98
2023-05-05T10:31:02.187Z,101982.69
2023-05-05T10:33:55.677Z,101972.43
2023-05-05T10:36:43.146Z,101967.20
2023-05-05T10:42:42.380Z,101964.12
2023-05-05T10:45:29.438Z,101956.31
2023-05-05T10:48:27.136Z,101948.02
2023-05-05T10:51:40.593Z,101944.77
2023-05-05T10:54:42.645Z,101936.98
2023-05-05T10:58:00.604Z,101935.74
2023-05-05T11:00:50.022Z,101924.51
2023-05-05T11:03:37.163Z,101920.45
2023-05-05T11:06:27.193Z,101920.01
2023-05-05T11:09:31.948Z,101915.71
2023-05-05T11:12:18.928Z,101912.91
2023-05-05T11:15:28.492Z,101911.63
2023-05-05T11:18:36.052Z,101903.39
2023-05-05T11:21:22.717Z,101901.38
2023-05-05T11:24:39.874Z,101891.14
2023-05-05T11:28:04.334Z,101884.03
2023-05-05T11:30:58.244Z,101880.89
2023-05-05T11:33:53.809Z,101875.53
2023-05-05T11:36:41.045Z,101876.32
2023-05-05T11:39:34.485Z,101875.20
2023-05-05T11:42:30.280Z,101869.77
2023-05-05T11:45:25.074Z,101861.40
2023-05-05T11:51:38.590Z,101848.55
2023-05-05T11:54:50.293Z,101842.73
2023-05-05T12:01:08.596Z,101838.15
2023-05-05T12:04:03.231Z,101836.83
2023-05-05T12:07:14.347Z,101832.45
2023-05-05T12:10:01.857Z,101831.33
2023-05-05T12:12:49.543Z,101831.19
2023-05-05T12:15:37.051Z,101826.56
2023-05-05T12:18:25.578Z,101816.99
2023-05-05T12:21:35.634Z,101812.23
2023-05-05T12:24:23.238Z,101807.39
2023-05-05T12:27:19.528Z,101802.83
2023-05-05T12:30:14.020Z,101795.15
2023-05-05T12:33:03.894Z,101796.48
2023-05-05T12:35:51.436Z,101797.28
2023-05-05T12:38:39.013Z,101795.06
2023-05-05T12:41:26.121Z,101785.19
2023-05-05T12:44:12.904Z,101783.52
2023-05-05T12:46:59.757Z,101788.08
2023-05-05T12:49:51.759Z,101784.11
2023-05-05T12:52:45.318Z,101774.48
2023-05-05T12:55:40.122Z,101766.58
2023-05-05T12:58:28.010Z,101769.45
2023-05-05T13:01:14.716Z,101764.36
2023-05-05T13:04:06.488Z,101756.33
2023-05-05T13:07:14.899Z,101756.63
2023-05-05T13:10:10.882Z,101754.15
2023-05-05T13:12:58.554Z,101751.59
2023-05-05T13:15:47.556Z,101745.73
2023-05-05T13:18:48.506Z,101751.02
2023-05-05T13:21:35.220Z,101749.46
2023-05-05T13:24:34.446Z,101749.29
2023-05-05T13:27:24.988Z,101749.31
2023-05-05T13:30:12.445Z,101749.55
2023-05-05T13:32:59.484Z,101746.10
2023-05-05T13:35:46.511Z,101744.91
2023-05-05T13:38:33.450Z,101741.63
2023-05-05T13:41:20.573Z,101736.78
2023-05-05T13:44:07.867Z,101739.55
2023-05-05T13:46:55.311Z,101734.65
2023-05-05T13:49:42.438Z,101736.39
2023-05-05T13:52:31.587Z,101733.36
2023-05-05T13:55:21.092Z,101731.05
2023-05-05T13:58:08.272Z,101732.27
2023-05-05T14:00:55.510Z,101732.15
2023-05-05T14:03:42.725Z,101734.54
2023-05-05T14:06:32.605Z,101734.04
2023-05-05T14:09:19.769Z,101723.98
2023-05-05T14:12:06.751Z,101723.83
2023-05-05T14:14:54.814Z,101725.29
2023-05-05T14:17:41.745Z,101727.18
2023-05-05T14:20:28.631Z,101726.16
2023-05-05T14:23:15.377Z,101725.81
2023-05-05T14:26:02.171Z,101721.08
2023-05-05T14:28:49.932Z,101720.71
2023-05-05T14:31:37.034Z,101722.05
2023-05-05T14:34:24.030Z,101720.27
2023-05-05T14:37:10.895Z,101716.55
2023-05-05T14:39:58.431Z,101715.34
2023-05-05T14:42:45.077Z,101711.77
2023-05-05T14:45:32.660Z,101709.34
2023-05-05T14:48:22.494Z,101709.91
2023-05-05T14:51:09.787Z,101709.42
2023-05-05T14:53:56.568Z,101705.64
2023-05-05T14:56:45.046Z,101706.11
2023-05-05T14:59:33.643Z,101707.80
2023-05-05T15:02:20.809Z,101706.55
2023-05-05T15:05:08.483Z,101706.35
2023-05-05T15:07:58.679Z,101706.24
2023-05-05T15:10:47.002Z,101703.92
2023-05-05T15:13:34.026Z,101702.97
2023-05-05T15:16:21.317Z,101697.91
2023-05-05T15:19:07.991Z,101697.69
2023-05-05T15:21:55.588Z,101693.95
2023-05-05T15:24:42.357Z,101691.67
2023-05-05T15:27:31.877Z,101692.52
2023-05-05T15:30:18.723Z,101693.15
2023-05-05T15:33:05.839Z,101692.41
2023-05-05T15:35:52.832Z,101688.95
2023-05-05T15:38:44.614Z,101689.31
2023-05-05T15:41:33.750Z,101685.89
2023-05-05T15:44:20.559Z,101691.10
2023-05-05T15:47:07.707Z,101692.30
2023-05-05T15:49:54.866Z,101690.95
2023-05-05T15:52:42.468Z,101690.00
2023-05-05T15:55:58.923Z,101691.11
2023-05-05T15:58:45.719Z,101698.91
2023-05-05T16:01:33.789Z,101699.55
2023-05-05T16:04:20.850Z,101700.33
2023-05-05T16:07:07.848Z,101704.65
2023-05-05T16:09:57.651Z,101703.91
2023-05-05T16:12:44.888Z,101701.42
2023-05-05T16:15:31.396Z,101702.94
2023-05-05T16:18:18.825Z,101702.42
2023-05-05T16:21:05.736Z,101706.26
2023-05-05T16:23:52.489Z,101709.57
2023-05-05T16:26:40.423Z,101711.98
2023-05-05T16:36:29.769Z,101720.56
2023-05-05T16:46:55.562Z,101728.58
2023-05-05T16:57:43.841Z,101739.28
2023-05-05T17:04:12.034Z,101746.61
2023-05-05T17:07:05.256Z,101747.31
2023-05-05T17:10:03.978Z,101751.27
2023-05-05T17:13:15.761Z,101750.96
2023-05-05T17:16:02.907Z,101750.04
2023-05-05T17:18:49.741Z,101747.55
2023-05-05T17:21:36.580Z,101749.86
2023-05-05T17:24:24.171Z,101751.19
2023-05-05T17:27:11.047Z,101754.86
2023-05-05T17:29:58.877Z,101754.95
2023-05-05T17:32:46.292Z,101755.08
2023-05-05T17:35:34.447Z,101760.93
2023-05-05T17:38:21.476Z,101763.45
2023-05-05T17:41:08.030Z,101766.73
2023-05-05T17:43:55.146Z,101766.97
2023-05-05T17:46:42.170Z,101770.27
2023-05-05T17:49:29.215Z,101773.79
2023-05-05T17:52:16.334Z,101775.60
2023-05-05T17:55:03.231Z,101778.86
2023-05-05T17:57:50.406Z,101783.70
2023-05-05T18:00:37.018Z,101784.77
2023-05-05T18:03:23.984Z,101788.55
2023-05-05T18:06:11.173Z,101786.69
2023-05-05T18:08:58.228Z,101787.92
2023-05-05T18:11:44.704Z,101788.75
2023-05-05T18:14:31.894Z,101783.29
2023-05-05T18:17:18.549Z,101786.77
2023-05-05T18:20:07.185Z,101791.78
2023-05-05T18:22:53.850Z,101794.00
2023-05-05T18:25:41.646Z,101792.72
2023-05-05T18:28:28.716Z,101791.88
2023-05-05T18:34:44.210Z,101787.58
2023-05-05T18:37:31.371Z,101789.22
2023-05-05T18:40:42.028Z,101795.41
2023-05-05T18:46:53.771Z,101793.19
2023-05-05T18:50:05.501Z,101794.12
2023-05-05T18:56:17.790Z,101796.48
2023-05-05T19:02:31.060Z,101789.96
2023-05-05T19:05:19.297Z,101789.77
2023-05-05T19:08:07.869Z,101788.48
2023-05-05T19:10:54.369Z,101785.63
2023-05-05T19:13:41.429Z,101786.38
2023-05-05T19:16:29.322Z,101788.36
2023-05-05T19:19:17.209Z,101785.10
2023-05-05T19:22:04.313Z,101784.45
2023-05-05T19:24:51.363Z,101781.35
2023-05-05T19:27:39.156Z,101779.89
2023-05-05T19:30:27.028Z,101775.15
2023-05-05T19:33:15.771Z,101775.86
2023-05-05T19:36:02.935Z,101777.30
2023-05-05T19:38:49.819Z,101784.30
2023-05-05T19:41:36.527Z,101782.46
2023-05-05T19:44:23.872Z,101780.57
2023-05-05T19:47:12.344Z,101782.19
2023-05-05T19:49:59.229Z,101782.37
2023-05-05T19:52:46.055Z,101780.93
2023-05-05T19:55:33.286Z,101778.65
2023-05-05T19:58:20.387Z,101776.30
2023-05-05T20:01:08.540Z,101776.23
2023-05-05T20:03:57.092Z,101776.63
2023-05-05T20:06:44.047Z,101772.01
2023-05-05T20:09:31.009Z,101771.02
2023-05-05T20:12:19.966Z,101769.86
2023-05-05T20:15:07.681Z,101768.12
2023-05-05T20:17:55.077Z,101769.05
2023-05-05T20:20:42.213Z,101768.88
2023-05-05T20:23:29.338Z,101766.42
2023-05-05T20:26:17.098Z,101763.77
2023-05-05T20:29:04.993Z,101762.96
2023-05-05T20:31:51.872Z,101760.70
2023-05-05T20:34:39.407Z,101758.08
2023-05-05T20:37:27.263Z,101758.65
2023-05-05T20:40:14.505Z,101754.59
2023-05-05T20:43:01.114Z,101759.79
2023-05-05T20:45:47.825Z,101766.70
2023-05-05T20:48:34.672Z,101766.88
2023-05-05T20:51:21.653Z,101768.13
2023-05-05T20:54:10.296Z,101767.41
2023-05-05T20:56:58.789Z,101763.85
2023-05-05T20:59:45.956Z,101759.96
2023-05-05T21:02:33.063Z,101752.65
2023-05-05T21:05:20.146Z,101754.09
2023-05-05T21:08:08.125Z,101751.60
2023-05-05T21:10:55.368Z,101756.08
2023-05-05T21:13:42.629Z,101756.11
2023-05-05T21:16:29.472Z,101756.04
2023-05-05T21:19:16.903Z,101752.28
2023-05-05T21:22:04.551Z,101749.69
2023-05-05T21:24:51.539Z,101751.22
2023-05-05T21:27:38.374Z,101747.94
2023-05-05T21:30:25.755Z,101748.51
2023-05-05T21:33:13.332Z,101746.46
2023-05-05T21:36:00.199Z,101746.80
2023-05-05T21:38:47.181Z,101746.19
2023-05-05T21:41:33.838Z,101745.55
2023-05-05T21:44:21.075Z,101744.73
2023-05-05T21:47:07.936Z,101744.61
2023-05-05T21:49:54.627Z,101742.31
2023-05-05T21:52:41.590Z,101739.48
2023-05-05T21:55:28.332Z,101737.89
2023-05-05T21:58:16.571Z,101731.31
2023-05-05T22:01:03.813Z,101731.58
2023-05-05T22:03:51.174Z,101730.08
2023-05-05T22:06:38.165Z,101727.55
2023-05-05T22:09:52.597Z,101727.31
2023-05-05T22:12:39.290Z,101721.06
2023-05-05T22:15:29.973Z,101725.63
2023-05-05T22:18:19.768Z,101720.44
2023-05-05T22:21:06.837Z,101717.73
2023-05-05T22:23:53.795Z,101714.72
2023-05-05T22:26:43.347Z,101709.94
2023-05-05T22:29:30.717Z,101705.52
2023-05-05T22:32:17.556Z,101704.13
2023-05-05T22:35:05.937Z,101702.58
2023-05-05T22:37:52.861Z,101697.81
2023-05-05T22:40:40.059Z,101693.39
2023-05-05T22:43:27.020Z,101692.36
2023-05-05T22:46:15.276Z,101687.47
2023-05-05T22:49:02.029Z,101683.45
2023-05-05T22:51:49.065Z,101682.99
2023-05-05T22:54:36.185Z,101680.25
2023-05-05T22:57:24.823Z,101676.33
2023-05-05T23:00:28.746Z,101669.55
2023-05-05T23:03:15.649Z,101668.09
2023-05-05T23:06:02.474Z,101664.89
2023-05-05T23:08:49.356Z,101663.29
2023-05-05T23:11:35.908Z,101663.40
2023-05-05T23:14:22.714Z,101658.61
2023-05-05T23:17:09.858Z,101657.00
2023-05-05T23:19:57.009Z,101653.11
2023-05-05T23:22:43.819Z,101657.25
2023-05-05T23:25:30.820Z,101651.10
2023-05-05T23:28:18.809Z,101648.48
2023-05-05T23:31:06.163Z,101645.67
2023-05-05T23:33:52.979Z,101640.52
2023-05-05T23:36:39.918Z,101639.60
2023-05-05T23:39:26.738Z,101638.17
2023-05-05T23:42:13.642Z,101634.05
2023-05-05T23:45:00.958Z,101628.83
2023-05-05T23:47:47.890Z,101632.96
2023-05-05T23:50:34.739Z,101631.08
2023-05-05T23:53:21.678Z,101623.52
2023-05-05T23:56:08.974Z,101629.29
2023-05-05T23:58:56.292Z,101629.55
